Time;durP1;ratioP1;P1;durP2;ratioP2;P2;SDS_P1;SDS_P2;PMS_P1;PMS_P2;Temp;Humidity;BMP_temperature;BMP_pressure;BME280_temperature;BME280_humidity;BME280_pressure;Samples;Min_cycle;Max_cycle;Signal;HPM_P1;HPM_P2
2021/10/11 00:01:05;;;;;;;15.20;8.93;;;3.20;99.90;;;;;;4978402;28;20209;-55
2021/10/11 00:03:30;;;;;;;19.00;9.87;;;3.20;99.90;;;;;;4974971;28;20184;-53
2021/10/11 00:05:56;;;;;;;14.10;9.03;;;3.20;99.90;;;;;;4976122;28;20570;-54
2021/10/11 00:08:21;;;;;;;16.73;9.73;;;3.20;99.90;;;;;;4967838;28;20361;-53
2021/10/11 00:10:51;;;;;;;15.20;9.77;;;3.10;99.90;;;;;;4968896;28;20548;-56
2021/10/11 00:13:21;;;;;;;15.10;9.20;;;3.10;99.90;;;;;;4963146;28;20189;-54
2021/10/11 00:15:47;;;;;;;15.27;8.63;;;3.10;99.90;;;;;;4962968;28;20773;-55
2021/10/11 00:18:13;;;;;;;13.93;9.60;;;3.10;99.90;;;;;;4979199;28;20429;-56
2021/10/11 00:20:39;;;;;;;14.23;9.03;;;3.10;99.90;;;;;;4966260;28;20515;-55
2021/10/11 00:23:05;;;;;;;14.30;9.70;;;3.10;99.90;;;;;;4968031;28;20460;-55
2021/10/11 00:25:31;;;;;;;17.97;10.53;;;3.00;99.90;;;;;;4961747;28;20503;-57
2021/10/11 00:27:56;;;;;;;26.30;8.90;;;3.00;99.90;;;;;;4967702;28;20318;-55
2021/10/11 00:30:22;;;;;;;17.33;9.40;;;3.00;99.90;;;;;;4966866;28;20544;-56
2021/10/11 00:32:48;;;;;;;19.37;9.03;;;2.90;99.70;;;;;;4968530;28;20197;-55
2021/10/11 00:35:14;;;;;;;15.80;9.43;;;2.90;99.80;;;;;;4965148;28;20178;-52
2021/10/11 00:37:40;;;;;;;24.77;9.53;;;2.90;99.70;;;;;;4983058;28;20174;-54
2021/10/11 00:40:07;;;;;;;17.90;11.20;;;2.90;99.40;;;;;;4968379;28;20460;-57
2021/10/11 00:42:34;;;;;;;14.60;9.27;;;2.90;99.10;;;;;;4964599;28;20236;-54
2021/10/11 00:45:00;;;;;;;17.20;9.40;;;2.80;99.20;;;;;;4962692;28;20485;-56
2021/10/11 00:47:25;;;;;;;13.90;8.93;;;2.80;99.20;;;;;;4967816;28;20432;-55
2021/10/11 00:49:51;;;;;;;14.50;9.40;;;2.70;99.20;;;;;;4982264;28;20218;-54
2021/10/11 00:52:17;;;;;;;18.93;9.80;;;2.70;99.20;;;;;;4966840;28;20182;-56
2021/10/11 00:54:42;;;;;;;14.30;8.53;;;2.70;99.60;;;;;;4966512;28;20264;-57
2021/10/11 00:57:08;;;;;;;17.77;9.83;;;2.60;99.90;;;;;;4978009;28;20190;-56
2021/10/11 00:59:34;;;;;;;15.90;9.63;;;2.60;99.90;;;;;;4950037;28;20206;-57
2021/10/11 01:02:01;;;;;;;13.37;8.80;;;2.60;99.90;;;;;;4966007;28;20181;-56
2021/10/11 01:04:26;;;;;;;17.93;9.37;;;2.60;99.90;;;;;;4964362;28;20308;-54
2021/10/11 01:06:52;;;;;;;15.53;9.33;;;2.60;99.90;;;;;;4983642;28;20460;-56
2021/10/11 01:09:18;;;;;;;15.53;9.77;;;2.50;99.90;;;;;;4978104;28;20206;-55
2021/10/11 01:11:47;;;;;;;16.67;9.20;;;2.50;99.90;;;;;;4960322;28;20404;-56
2021/10/11 01:14:13;;;;;;;20.83;9.27;;;2.50;99.90;;;;;;4968950;28;20514;-54
2021/10/11 01:16:39;;;;;;;17.60;10.23;;;2.50;99.90;;;;;;4941963;28;20985;-57
2021/10/11 01:19:04;;;;;;;17.03;9.13;;;2.50;99.90;;;;;;4969762;28;20231;-55
2021/10/11 01:21:30;;;;;;;13.40;8.90;;;2.50;99.90;;;;;;4966234;28;20181;-55
2021/10/11 01:23:56;;;;;;;14.97;9.23;;;2.50;99.90;;;;;;4966816;28;20234;-57
2021/10/11 01:26:22;;;;;;;19.17;10.60;;;2.40;99.90;;;;;;4983026;28;20173;-52
2021/10/11 01:28:47;;;;;;;19.20;10.60;;;2.50;99.90;;;;;;4969770;28;20344;-55
2021/10/11 01:31:13;;;;;;;18.60;10.17;;;2.50;99.90;;;;;;4982896;28;20170;-53
2021/10/11 01:33:39;;;;;;;16.80;9.00;;;2.50;99.90;;;;;;4967214;28;20399;-53
2021/10/11 01:36:05;;;;;;;23.10;9.93;;;2.50;99.90;;;;;;4958788;28;20404;-53
2021/10/11 01:38:31;;;;;;;23.57;11.00;;;2.60;99.90;;;;;;4966854;28;20781;-55
2021/10/11 01:40:56;;;;;;;35.30;13.50;;;2.60;99.90;;;;;;4968041;28;20452;-55
2021/10/11 01:43:22;;;;;;;34.03;12.00;;;2.60;99.90;;;;;;4966571;28;20185;-55
2021/10/11 01:45:51;;;;;;;37.90;12.70;;;2.60;99.90;;;;;;4971339;28;20689;-54
2021/10/11 01:48:16;;;;;;;51.00;13.50;;;2.60;99.90;;;;;;4987462;28;20534;-54
2021/10/11 01:50:42;;;;;;;62.20;13.30;;;2.60;99.90;;;;;;4972100;28;20441;-54
2021/10/11 01:53:08;;;;;;;32.77;12.57;;;2.60;99.90;;;;;;4972592;28;20253;-56
2021/10/11 01:55:34;;;;;;;48.60;13.70;;;2.60;99.90;;;;;;4967911;28;20178;-54
2021/10/11 01:58:00;;;;;;;51.03;14.00;;;2.60;99.90;;;;;;4969648;28;20186;-54
2021/10/11 02:00:26;;;;;;;36.53;14.37;;;2.50;99.90;;;;;;4960395;28;20312;-57
2021/10/11 02:02:52;;;;;;;62.93;13.27;;;2.50;99.90;;;;;;4962835;28;20968;-56
2021/10/11 02:05:17;;;;;;;32.47;12.97;;;2.50;99.90;;;;;;4970340;28;20605;-55
2021/10/11 02:07:44;;;;;;;62.30;12.97;;;2.50;99.90;;;;;;4967626;28;20697;-52
2021/10/11 02:10:10;;;;;;;38.00;12.97;;;2.40;99.90;;;;;;4986881;28;20237;-55
2021/10/11 02:12:36;;;;;;;39.17;13.27;;;2.40;99.90;;;;;;4969194;28;20952;-55
2021/10/11 02:15:03;;;;;;;57.30;13.97;;;2.40;99.90;;;;;;4962065;28;20429;-57
2021/10/11 02:17:29;;;;;;;55.53;13.30;;;2.40;99.90;;;;;;4968459;28;20448;-54
2021/10/11 02:19:55;;;;;;;48.50;13.83;;;2.40;99.90;;;;;;4974821;28;20475;-54
2021/10/11 02:22:21;;;;;;;56.77;14.83;;;2.40;99.90;;;;;;4985308;28;20199;-54
2021/10/11 02:24:46;;;;;;;71.00;14.20;;;2.40;99.90;;;;;;4969417;28;20709;-54
2021/10/11 02:27:12;;;;;;;69.10;13.47;;;2.40;99.90;;;;;;4970579;28;20433;-56
2021/10/11 02:29:38;;;;;;;33.00;12.83;;;2.40;99.90;;;;;;4971513;28;20272;-55
2021/10/11 02:32:04;;;;;;;30.03;12.40;;;2.40;99.90;;;;;;4984679;28;20655;-53
2021/10/11 02:34:30;;;;;;;32.97;12.37;;;2.40;99.90;;;;;;4972457;28;20429;-55
2021/10/11 02:36:56;;;;;;;32.07;13.40;;;2.40;99.90;;;;;;4967980;28;20620;-54
2021/10/11 02:39:21;;;;;;;28.57;13.50;;;2.50;99.90;;;;;;4970411;28;20207;-53
2021/10/11 02:41:47;;;;;;;37.83;14.23;;;2.50;99.90;;;;;;4969060;28;20187;-57
2021/10/11 02:44:13;;;;;;;25.17;14.27;;;2.50;99.90;;;;;;4979298;28;20166;-53
2021/10/11 02:46:38;;;;;;;41.30;12.90;;;2.60;99.90;;;;;;4968861;28;20185;-54
2021/10/11 02:49:04;;;;;;;31.40;12.17;;;2.60;99.90;;;;;;4947079;28;20205;-56
2021/10/11 02:51:30;;;;;;;33.00;12.87;;;2.60;99.90;;;;;;4948374;28;20232;-53
2021/10/11 02:53:55;;;;;;;51.57;14.37;;;2.50;99.90;;;;;;4968438;28;20175;-56
2021/10/11 02:56:21;;;;;;;46.07;12.23;;;2.50;99.90;;;;;;4968730;28;20173;-54
2021/10/11 02:58:47;;;;;;;70.13;13.63;;;2.50;99.90;;;;;;4968580;28;20235;-54
2021/10/11 03:01:14;;;;;;;84.07;13.83;;;2.50;99.90;;;;;;4947810;28;20337;-53
2021/10/11 03:03:40;;;;;;;48.17;12.87;;;2.50;99.90;;;;;;4945113;28;20269;-55
2021/10/11 03:06:06;;;;;;;36.00;14.77;;;2.40;99.90;;;;;;4965645;28;20442;-54
2021/10/11 03:08:35;;;;;;;35.07;15.90;;;2.50;99.90;;;;;;4969016;28;20588;-55
2021/10/11 03:11:02;;;;;;;34.57;16.27;;;2.50;99.90;;;;;;4960884;28;21626;-55
2021/10/11 03:13:29;;;;;;;171.77;17.27;;;2.50;99.90;;;;;;4965884;28;20528;-54
2021/10/11 03:15:55;;;;;;;59.37;15.30;;;2.50;99.90;;;;;;4967534;28;20431;-56
2021/10/11 03:18:20;;;;;;;51.80;14.47;;;2.40;99.90;;;;;;4949913;28;20440;-55
2021/10/11 03:20:46;;;;;;;40.43;14.57;;;2.50;99.90;;;;;;4961502;28;20453;-55
2021/10/11 03:23:12;;;;;;;46.57;15.30;;;2.50;99.90;;;;;;4970010;28;20170;-54
2021/10/11 03:25:38;;;;;;;33.70;14.77;;;2.50;99.90;;;;;;4985829;28;20170;-54
2021/10/11 03:28:04;;;;;;;35.13;15.20;;;2.50;99.90;;;;;;4976790;28;20174;-54
2021/10/11 03:30:31;;;;;;;52.63;16.20;;;2.50;99.90;;;;;;4965279;28;20202;-55
2021/10/11 03:32:56;;;;;;;39.27;14.50;;;2.50;99.90;;;;;;4970481;28;20443;-54
2021/10/11 03:35:23;;;;;;;42.80;14.53;;;2.50;99.90;;;;;;4967496;28;20416;-56
2021/10/11 03:37:49;;;;;;;80.80;16.70;;;2.40;99.90;;;;;;4966189;28;20559;-55
2021/10/11 03:40:15;;;;;;;58.23;17.80;;;2.50;99.90;;;;;;4965847;28;20462;-55
2021/10/11 03:42:41;;;;;;;113.27;21.90;;;2.50;99.90;;;;;;4969184;28;20437;-56
2021/10/11 03:45:07;;;;;;;135.67;21.77;;;2.40;99.90;;;;;;4966441;28;20433;-55
2021/10/11 03:47:33;;;;;;;80.90;20.50;;;2.40;99.90;;;;;;4983193;28;20188;-55
2021/10/11 03:49:59;;;;;;;94.20;21.80;;;2.30;99.90;;;;;;4969622;28;20449;-54
2021/10/11 03:52:25;;;;;;;78.37;23.27;;;2.30;99.90;;;;;;4967286;28;20177;-55
2021/10/11 03:54:51;;;;;;;64.93;22.77;;;2.20;99.90;;;;;;4967166;28;20448;-57
2021/10/11 03:57:16;;;;;;;54.70;18.93;;;2.20;99.90;;;;;;4944520;28;20194;-53
2021/10/11 03:59:42;;;;;;;59.00;22.67;;;2.20;99.90;;;;;;4961390;28;20214;-55
2021/10/11 04:02:08;;;;;;;50.83;20.63;;;2.20;99.90;;;;;;4955998;28;20178;-52
2021/10/11 04:04:36;;;;;;;70.63;22.50;;;2.20;99.90;;;;;;4961403;28;20653;-55
2021/10/11 04:07:07;;;;;;;57.70;20.23;;;2.20;99.90;;;;;;4958420;28;20428;-52
2021/10/11 04:09:33;;;;;;;48.07;19.10;;;2.20;99.90;;;;;;4963469;28;20488;-54
2021/10/11 04:12:06;;;;;;;57.27;20.30;;;2.20;99.90;;;;;;4960742;28;21293;-54
2021/10/11 04:14:33;;;;;;;53.43;19.07;;;2.20;99.90;;;;;;4963453;28;20182;-53
2021/10/11 04:16:59;;;;;;;50.43;18.07;;;2.30;99.90;;;;;;4960292;28;20433;-51
2021/10/11 04:19:26;;;;;;;47.20;16.67;;;2.30;99.90;;;;;;4963215;28;20491;-54
2021/10/11 04:21:51;;;;;;;53.03;17.20;;;2.20;99.90;;;;;;4961805;28;20569;-54
2021/10/11 04:24:17;;;;;;;52.17;17.50;;;2.20;99.90;;;;;;4958840;28;20439;-57
2021/10/11 04:26:43;;;;;;;320.30;23.93;;;2.20;99.90;;;;;;4960494;28;20259;-54
2021/10/11 04:29:09;;;;;;;117.90;20.43;;;2.20;99.90;;;;;;4968119;28;20362;-54
2021/10/11 04:31:34;;;;;;;90.13;19.27;;;2.00;99.90;;;;;;4981434;28;20511;-55
2021/10/11 04:34:00;;;;;;;372.73;23.43;;;2.00;99.90;;;;;;4973134;28;20188;-52
2021/10/11 04:36:26;;;;;;;37.40;15.80;;;1.90;99.90;;;;;;4976264;28;20200;-52
2021/10/11 04:38:52;;;;;;;54.40;15.90;;;1.90;99.90;;;;;;4967137;28;20324;-54
2021/10/11 04:41:18;;;;;;;84.30;15.13;;;1.80;99.90;;;;;;4959041;28;20917;-53
2021/10/11 04:43:44;;;;;;;208.00;21.10;;;1.80;99.90;;;;;;4959353;28;20437;-53
2021/10/11 04:46:10;;;;;;;41.30;16.57;;;1.80;99.90;;;;;;4956748;28;20979;-52
2021/10/11 04:48:35;;;;;;;67.70;16.03;;;1.80;99.90;;;;;;4952722;28;20467;-54
2021/10/11 04:51:01;;;;;;;28.00;14.00;;;1.80;99.90;;;;;;4964004;28;20187;-51
2021/10/11 04:53:27;;;;;;;43.90;14.90;;;1.80;99.90;;;;;;4960573;28;20193;-51
2021/10/11 04:55:52;;;;;;;95.50;16.63;;;1.90;99.90;;;;;;4936055;28;20291;-51
2021/10/11 04:58:18;;;;;;;31.03;15.00;;;1.90;99.90;;;;;;4952380;28;20293;-51
2021/10/11 05:00:44;;;;;;;118.93;16.27;;;1.90;99.90;;;;;;4957837;28;20207;-52
2021/10/11 05:03:09;;;;;;;48.03;16.30;;;1.90;99.90;;;;;;4972180;28;20215;-52
2021/10/11 05:05:35;;;;;;;62.43;16.80;;;1.90;99.90;;;;;;4961403;28;20178;-52
2021/10/11 05:08:02;;;;;;;50.17;16.23;;;1.80;99.90;;;;;;4957153;28;20172;-52
2021/10/11 05:10:28;;;;;;;38.23;15.33;;;1.80;99.90;;;;;;4954320;28;20709;-51
2021/10/11 05:12:54;;;;;;;99.60;16.70;;;1.80;99.90;;;;;;4982086;28;20627;-56
2021/10/11 05:15:19;;;;;;;211.30;20.77;;;1.80;99.90;;;;;;4949866;28;20429;-54
2021/10/11 05:17:45;;;;;;;30.17;13.97;;;1.80;99.90;;;;;;4960189;28;20853;-54
2021/10/11 05:20:11;;;;;;;54.00;15.43;;;1.80;99.90;;;;;;4978090;28;20214;-52
2021/10/11 05:22:40;;;;;;;60.53;14.27;;;1.80;99.90;;;;;;4961928;28;20312;-53
2021/10/11 05:25:07;;;;;;;37.10;13.80;;;1.80;99.90;;;;;;4975852;28;20191;-54
2021/10/11 05:27:33;;;;;;;60.50;15.03;;;1.80;99.90;;;;;;4963738;28;20427;-52
2021/10/11 05:29:59;;;;;;;43.00;13.13;;;1.80;99.90;;;;;;4966475;28;20473;-55
2021/10/11 05:32:25;;;;;;;71.97;14.00;;;1.80;99.90;;;;;;4966677;28;20200;-55
2021/10/11 05:34:51;;;;;;;30.53;13.10;;;1.80;99.90;;;;;;4979348;28;20462;-51
2021/10/11 05:37:17;;;;;;;64.13;13.23;;;1.70;99.90;;;;;;4960586;28;20439;-55
2021/10/11 05:39:43;;;;;;;40.30;13.10;;;1.80;99.90;;;;;;4951527;28;20745;-53
2021/10/11 05:42:09;;;;;;;29.80;13.23;;;1.80;99.90;;;;;;4965099;28;20794;-54
2021/10/11 05:44:35;;;;;;;32.43;13.20;;;1.80;99.90;;;;;;4945509;28;20964;-58
2021/10/11 05:47:02;;;;;;;24.40;12.70;;;1.80;99.90;;;;;;4967048;28;20231;-56
2021/10/11 05:49:27;;;;;;;57.43;13.33;;;1.70;99.90;;;;;;4985352;23;20463;-60
2021/10/11 05:51:53;;;;;;;41.93;15.90;;;1.70;99.90;;;;;;4986060;28;20454;-59
2021/10/11 05:54:19;;;;;;;41.50;17.20;;;1.70;99.90;;;;;;4974955;28;20607;-59
2021/10/11 05:56:44;;;;;;;54.37;16.77;;;1.70;99.90;;;;;;4966351;28;20312;-60
2021/10/11 05:59:10;;;;;;;56.80;16.60;;;1.80;99.90;;;;;;4967622;28;20536;-59
2021/10/11 06:01:37;;;;;;;48.17;19.50;;;1.80;99.90;;;;;;4953642;28;20197;-59
2021/10/11 06:04:03;;;;;;;49.73;16.50;;;1.80;99.90;;;;;;4962533;28;20192;-60
2021/10/11 06:06:28;;;;;;;41.87;16.80;;;1.70;99.90;;;;;;4945409;29;20438;-60
2021/10/11 06:08:54;;;;;;;32.73;15.77;;;1.80;99.90;;;;;;4964615;28;20445;-60
2021/10/11 06:11:20;;;;;;;36.03;15.37;;;1.80;99.90;;;;;;4949893;28;20570;-59
2021/10/11 06:13:46;;;;;;;36.37;17.00;;;1.80;99.90;;;;;;4946732;29;20178;-59
2021/10/11 06:16:12;;;;;;;32.33;14.67;;;1.90;99.90;;;;;;4959772;28;20478;-59
2021/10/11 06:18:38;;;;;;;29.47;14.00;;;1.90;99.90;;;;;;4944747;28;20437;-59
2021/10/11 06:21:03;;;;;;;41.93;16.03;;;1.90;99.90;;;;;;4964178;28;20222;-59
2021/10/11 06:23:29;;;;;;;39.63;15.43;;;1.90;99.90;;;;;;4964726;28;20468;-59
2021/10/11 06:25:55;;;;;;;37.70;17.00;;;1.90;99.90;;;;;;4965561;28;20186;-59
2021/10/11 06:28:21;;;;;;;32.53;14.73;;;1.90;99.90;;;;;;4951474;28;20400;-59
2021/10/11 06:30:47;;;;;;;25.10;11.80;;;1.90;99.90;;;;;;4947941;28;20220;-59
2021/10/11 06:33:14;;;;;;;19.80;11.30;;;2.00;99.90;;;;;;4951296;28;20830;-59
2021/10/11 06:35:39;;;;;;;18.13;10.87;;;2.00;99.90;;;;;;4949530;28;20183;-59
2021/10/11 06:38:05;;;;;;;24.83;11.50;;;2.00;99.90;;;;;;4963350;28;20964;-59
2021/10/11 06:40:31;;;;;;;24.93;11.60;;;2.10;99.90;;;;;;4950272;29;20220;-60
2021/10/11 06:42:57;;;;;;;22.50;12.17;;;2.10;99.90;;;;;;4948283;28;20529;-59
2021/10/11 06:45:22;;;;;;;26.40;13.33;;;2.10;99.90;;;;;;4967100;28;20259;-60
2021/10/11 06:47:48;;;;;;;34.70;13.10;;;2.10;99.90;;;;;;4949700;29;20983;-59
2021/10/11 06:50:14;;;;;;;37.63;13.90;;;2.20;99.90;;;;;;4966780;28;20308;-60
2021/10/11 06:52:40;;;;;;;51.70;17.20;;;2.20;99.90;;;;;;4950300;28;20652;-60
2021/10/11 06:55:06;;;;;;;44.43;16.00;;;2.30;99.90;;;;;;4966466;28;20417;-59
2021/10/11 06:57:32;;;;;;;44.23;15.90;;;2.30;99.90;;;;;;4960241;28;20183;-60
2021/10/11 06:59:58;;;;;;;86.07;19.30;;;2.30;99.90;;;;;;4961755;28;20472;-59
2021/10/11 07:02:24;;;;;;;93.90;21.47;;;2.40;99.90;;;;;;4945877;28;20188;-60
2021/10/11 07:04:57;;;;;;;82.23;19.13;;;2.30;99.90;;;;;;4948021;28;20230;-60
2021/10/11 07:07:23;;;;;;;54.53;17.80;;;2.30;99.90;;;;;;4960628;28;20428;-60
2021/10/11 07:09:49;;;;;;;110.53;20.80;;;2.30;99.90;;;;;;4965699;28;20536;-60
2021/10/11 07:12:15;;;;;;;61.17;17.07;;;2.40;99.90;;;;;;4947260;28;20971;-60
2021/10/11 07:14:41;;;;;;;56.13;16.07;;;2.50;99.90;;;;;;4963498;28;20635;-61
2021/10/11 07:17:06;;;;;;;39.57;14.13;;;2.50;99.90;;;;;;4959440;28;20185;-60
2021/10/11 07:19:32;;;;;;;46.20;16.87;;;2.50;99.90;;;;;;4950572;28;20206;-60
2021/10/11 07:21:58;;;;;;;49.93;15.43;;;2.60;99.90;;;;;;4951005;29;20213;-60
2021/10/11 07:24:23;;;;;;;36.50;14.57;;;2.70;99.90;;;;;;4961390;28;20185;-60
2021/10/11 07:26:49;;;;;;;35.20;15.57;;;2.70;99.90;;;;;;4949147;29;20253;-60
2021/10/11 07:29:15;;;;;;;45.70;14.43;;;2.80;99.90;;;;;;4964256;28;20269;-60
2021/10/11 07:31:40;;;;;;;41.93;16.60;;;2.90;99.90;;;;;;4963442;28;20328;-60
2021/10/11 07:34:06;;;;;;;49.87;16.33;;;3.00;99.90;;;;;;4949875;28;20213;-60
2021/10/11 07:36:33;;;;;;;101.13;18.90;;;3.00;99.90;;;;;;4947020;28;20709;-60
2021/10/11 07:38:59;;;;;;;48.97;17.73;;;3.10;99.90;;;;;;4945944;29;20174;-60
2021/10/11 07:41:25;;;;;;;51.17;18.10;;;3.10;99.90;;;;;;4948272;28;20482;-61
2021/10/11 07:43:51;;;;;;;82.73;16.77;;;3.20;99.90;;;;;;4946342;28;20439;-61
2021/10/11 07:46:16;;;;;;;62.07;17.40;;;3.30;99.90;;;;;;4959832;28;20173;-60
2021/10/11 07:48:42;;;;;;;59.60;18.60;;;3.30;99.90;;;;;;4962135;28;20182;-61
2021/10/11 07:51:08;;;;;;;52.70;17.17;;;3.30;99.90;;;;;;4967602;28;20209;-60
2021/10/11 07:53:33;;;;;;;41.70;16.03;;;3.40;99.90;;;;;;4948904;28;20218;-60
2021/10/11 07:55:59;;;;;;;50.30;17.60;;;3.50;99.90;;;;;;4961131;28;20466;-60
2021/10/11 07:58:25;;;;;;;40.40;15.33;;;3.60;99.90;;;;;;4964989;28;20204;-61
2021/10/11 08:00:50;;;;;;;40.90;16.30;;;3.70;99.90;;;;;;4949033;28;20206;-60
2021/10/11 08:03:17;;;;;;;51.13;19.40;;;3.80;99.90;;;;;;4966482;28;20174;-59
2021/10/11 08:05:43;;;;;;;44.07;17.83;;;4.00;99.90;;;;;;4954911;28;20202;-60
2021/10/11 08:08:09;;;;;;;47.20;17.17;;;4.00;99.90;;;;;;4957458;28;20441;-61
2021/10/11 08:10:35;;;;;;;37.10;16.90;;;4.20;99.90;;;;;;4959580;28;20469;-61
2021/10/11 08:13:02;;;;;;;34.80;16.03;;;4.20;99.90;;;;;;4941439;28;20192;-62
2021/10/11 08:15:27;;;;;;;33.77;16.53;;;4.40;99.90;;;;;;4948051;28;21014;-61
2021/10/11 08:17:53;;;;;;;35.50;16.73;;;4.40;99.90;;;;;;4949903;28;20564;-61
2021/10/11 08:20:19;;;;;;;38.30;17.60;;;4.50;99.90;;;;;;4951480;28;20237;-59
2021/10/11 08:22:45;;;;;;;41.80;17.03;;;4.50;99.90;;;;;;4945954;28;20324;-61
2021/10/11 08:25:11;;;;;;;49.10;18.00;;;4.60;99.90;;;;;;4947226;28;20597;-60
2021/10/11 08:27:37;;;;;;;41.30;18.20;;;4.70;99.90;;;;;;4952739;28;20589;-60
2021/10/11 08:30:04;;;;;;;38.67;17.97;;;4.70;99.90;;;;;;4965127;28;20500;-59
2021/10/11 08:32:32;;;;;;;52.07;19.20;;;4.80;99.90;;;;;;4961936;28;20955;-61
2021/10/11 08:34:58;;;;;;;43.00;18.60;;;4.90;99.90;;;;;;4959807;28;20441;-60
2021/10/11 08:37:25;;;;;;;72.07;21.17;;;5.00;99.90;;;;;;4945281;28;20434;-60
2021/10/11 08:39:51;;;;;;;46.23;19.80;;;5.00;99.90;;;;;;4941438;28;20502;-61
2021/10/11 08:42:19;;;;;;;46.70;20.37;;;4.90;99.90;;;;;;4940680;28;20964;-59
2021/10/11 08:44:44;;;;;;;50.13;20.30;;;4.90;99.90;;;;;;4945669;28;20428;-61
2021/10/11 08:47:12;;;;;;;49.90;20.20;;;5.00;99.90;;;;;;4953821;28;20520;-61
2021/10/11 08:49:44;;;;;;;54.17;24.93;;;5.00;99.90;;;;;;4961456;28;20679;-60
2021/10/11 08:52:11;;;;;;;48.67;22.30;;;5.10;99.90;;;;;;4959591;28;20433;-59
2021/10/11 08:54:37;;;;;;;43.00;19.40;;;5.20;99.90;;;;;;4956550;28;20469;-61
2021/10/11 08:57:06;;;;;;;45.83;20.83;;;5.30;99.90;;;;;;4958192;28;20421;-61
2021/10/11 08:59:32;;;;;;;40.20;18.17;;;5.50;99.90;;;;;;4942605;28;20892;-61
2021/10/11 09:02:06;;;;;;;38.93;18.50;;;5.60;99.90;;;;;;4964195;28;20462;-60
2021/10/11 09:04:32;;;;;;;43.30;18.10;;;5.70;99.90;;;;;;4946096;29;20678;-60
2021/10/11 09:07:03;;;;;;;42.63;18.07;;;5.80;99.90;;;;;;4961563;28;20430;-59
2021/10/11 09:09:28;;;;;;;36.67;17.93;;;5.90;99.90;;;;;;4965442;28;20414;-61
2021/10/11 09:11:54;;;;;;;50.53;19.30;;;6.00;99.90;;;;;;4961127;28;20446;-60
2021/10/11 09:14:24;;;;;;;41.70;18.33;;;6.10;99.90;;;;;;4960474;28;20190;-60
2021/10/11 09:17:01;;;;;;;37.73;17.50;;;6.20;99.90;;;;;;4943017;28;20186;-61
2021/10/11 09:19:36;;;;;;;37.53;18.00;;;6.20;99.90;;;;;;4946802;28;20813;-60
2021/10/11 09:22:03;;;;;;;43.07;16.70;;;6.20;99.90;;;;;;4949463;28;21050;-59
2021/10/11 09:24:29;;;;;;;33.37;16.80;;;6.20;99.90;;;;;;4949347;28;20430;-60
2021/10/11 09:27:00;;;;;;;32.40;16.23;;;6.30;99.90;;;;;;4950267;28;20437;-60
2021/10/11 09:29:35;;;;;;;35.20;17.03;;;6.40;99.90;;;;;;4946439;28;20686;-59
2021/10/11 09:32:07;;;;;;;27.90;14.90;;;6.60;99.90;;;;;;4947998;28;20430;-60
2021/10/11 09:34:35;;;;;;;36.70;18.43;;;6.80;99.90;;;;;;4959755;28;20477;-60
2021/10/11 09:37:04;;;;;;;44.53;19.37;;;7.00;99.90;;;;;;4963791;28;20833;-60
2021/10/11 09:39:34;;;;;;;41.23;18.23;;;7.30;99.90;;;;;;4960298;28;20560;-60
2021/10/11 09:42:02;;;;;;;54.53;20.10;;;7.50;99.90;;;;;;4963327;28;20717;-59
2021/10/11 09:44:28;;;;;;;42.60;20.00;;;7.80;99.90;;;;;;4960008;28;20525;-60
2021/10/11 09:46:59;;;;;;;42.77;20.43;;;7.90;99.90;;;;;;4935768;28;20874;-60
2021/10/11 09:49:25;;;;;;;52.03;21.07;;;8.00;99.90;;;;;;4964940;28;20442;-60
2021/10/11 09:51:55;;;;;;;52.30;22.10;;;8.20;99.90;;;;;;4964463;28;20492;-61
2021/10/11 09:54:22;;;;;;;57.67;23.67;;;8.40;99.90;;;;;;4962145;28;20630;-61
2021/10/11 09:56:48;;;;;;;57.57;23.77;;;8.60;99.90;;;;;;4965188;28;20430;-60
2021/10/11 09:59:16;;;;;;;53.87;24.17;;;8.80;99.90;;;;;;4944495;28;20461;-60
2021/10/11 10:01:45;;;;;;;55.50;23.37;;;9.00;99.90;;;;;;4948808;28;20450;-62
2021/10/11 10:04:18;;;;;;;59.83;25.93;;;9.20;99.40;;;;;;4952092;28;20462;-61
2021/10/11 10:06:46;;;;;;;72.67;28.97;;;9.40;98.90;;;;;;4943503;28;20461;-58
2021/10/11 10:09:14;;;;;;;78.40;29.37;;;9.50;97.60;;;;;;4948450;28;20430;-62
2021/10/11 10:11:40;;;;;;;65.13;27.20;;;9.70;97.20;;;;;;4950253;28;21025;-61
2021/10/11 10:14:07;;;;;;;47.43;22.57;;;9.80;96.60;;;;;;4952926;28;20942;-61
2021/10/11 10:16:35;;;;;;;38.93;19.53;;;10.00;94.80;;;;;;4953476;28;20429;-61
2021/10/11 10:19:10;;;;;;;34.37;17.43;;;10.10;94.20;;;;;;4952972;29;20438;-61
2021/10/11 10:21:39;;;;;;;35.43;17.43;;;10.30;93.80;;;;;;4957151;28;20469;-62
2021/10/11 10:24:06;;;;;;;34.73;18.03;;;10.50;93.50;;;;;;4952670;29;20990;-62
2021/10/11 10:26:36;;;;;;;30.87;16.57;;;10.60;92.50;;;;;;4967229;28;20628;-61
2021/10/11 10:29:21;;;;;;;30.10;16.37;;;10.70;90.50;;;;;;4954035;28;20405;-61
2021/10/11 10:31:47;;;;;;;33.03;16.33;;;10.90;90.50;;;;;;4964355;28;20434;-65
2021/10/11 10:34:22;;;;;;;28.83;17.40;;;11.10;89.90;;;;;;4949531;29;21001;-62
2021/10/11 10:37:09;;;;;;;27.07;15.50;;;11.30;89.50;;;;;;4951155;28;20880;-62
2021/10/11 10:39:48;;;;;;;24.27;14.30;;;11.70;87.80;;;;;;4967901;28;20980;-62
2021/10/11 10:42:27;;;;;;;22.70;13.13;;;12.00;83.50;;;;;;4952813;28;20425;-61
2021/10/11 10:44:54;;;;;;;29.07;17.67;;;12.30;80.70;;;;;;4962723;28;20453;-63
2021/10/11 10:47:34;;;;;;;30.47;17.07;;;12.60;76.80;;;;;;4949612;28;20499;-62
2021/10/11 10:50:02;;;;;;;25.70;15.03;;;12.80;72.60;;;;;;4946126;28;20484;-61
2021/10/11 10:52:28;;;;;;;35.30;15.00;;;13.00;71.90;;;;;;4966390;28;20438;-62
2021/10/11 10:54:58;;;;;;;20.10;12.60;;;13.20;68.60;;;;;;4951844;28;20438;-61
2021/10/11 10:57:26;;;;;;;14.70;8.23;;;13.40;63.10;;;;;;4972404;28;21036;-62
2021/10/11 11:00:02;;;;;;;17.30;7.97;;;13.50;56.80;;;;;;4953390;28;20477;-63
2021/10/11 11:02:29;;;;;;;14.30;7.30;;;13.70;55.30;;;;;;4967649;28;20943;-62
2021/10/11 11:04:58;;;;;;;11.70;8.03;;;13.90;54.70;;;;;;4952037;28;20864;-61
2021/10/11 11:07:36;;;;;;;13.83;7.90;;;14.10;54.30;;;;;;4957026;28;20629;-62
2021/10/11 11:10:12;;;;;;;12.87;8.10;;;14.50;53.90;;;;;;4964557;28;20464;-61
2021/10/11 11:12:45;;;;;;;14.07;7.70;;;14.80;53.20;;;;;;4949167;28;20541;-62
2021/10/11 11:15:23;;;;;;;9.60;6.93;;;15.20;51.90;;;;;;4965742;28;20438;-58
2021/10/11 11:17:50;;;;;;;9.80;6.50;;;15.70;50.30;;;;;;4958791;28;20714;-57
2021/10/11 11:20:20;;;;;;;11.77;6.77;;;16.10;48.80;;;;;;4945074;28;20842;-58
2021/10/11 11:22:47;;;;;;;10.63;7.70;;;16.50;47.30;;;;;;4961022;28;20469;-58
2021/10/11 11:25:13;;;;;;;11.73;7.37;;;16.70;45.90;;;;;;4950367;28;20438;-58
2021/10/11 11:27:41;;;;;;;9.27;6.70;;;16.90;46.90;;;;;;4951813;29;20439;-59
2021/10/11 11:30:15;;;;;;;15.33;6.07;;;17.10;45.60;;;;;;4963235;28;20205;-58
2021/10/11 11:33:03;;;;;;;10.20;6.40;;;17.20;43.20;;;;;;4949921;28;20438;-59
2021/10/11 11:35:47;;;;;;;8.63;4.77;;;17.40;42.70;;;;;;4952609;28;20410;-59
2021/10/11 11:38:15;;;;;;;6.90;4.70;;;17.50;40.60;;;;;;4948769;28;20466;-59
2021/10/11 11:40:43;;;;;;;5.60;4.40;;;17.50;38.20;;;;;;4965663;28;21053;-58
2021/10/11 11:43:10;;;;;;;8.20;5.17;;;17.40;36.00;;;;;;4926911;29;20997;-57
2021/10/11 11:45:46;;;;;;;8.93;5.40;;;17.50;37.70;;;;;;4958970;28;20523;-59
2021/10/11 11:48:24;;;;;;;10.73;5.70;;;17.50;39.10;;;;;;4941817;28;20476;-60
2021/10/11 11:50:53;;;;;;;6.60;4.80;;;17.50;38.10;;;;;;4971855;23;20550;-55
2021/10/11 11:53:21;;;;;;;6.80;4.53;;;17.50;37.80;;;;;;4978083;28;20432;-56
2021/10/11 11:55:57;;;;;;;10.80;4.83;;;17.30;36.20;;;;;;4981271;28;20428;-58
2021/10/11 11:58:50;;;;;;;7.97;5.80;;;17.30;35.20;;;;;;4989761;28;20490;-56
2021/10/11 12:01:27;;;;;;;12.10;6.50;;;17.30;36.50;;;;;;4948543;28;20656;-57
2021/10/11 12:04:00;;;;;;;8.37;6.13;;;17.20;35.30;;;;;;4963263;28;20469;-57
2021/10/11 12:06:28;;;;;;;8.47;6.07;;;17.20;35.70;;;;;;4983363;28;20441;-57
2021/10/11 12:08:54;;;;;;;11.73;6.23;;;17.30;37.20;;;;;;4964588;28;20425;-58
2021/10/11 12:11:20;;;;;;;11.50;6.83;;;17.30;37.40;;;;;;4968277;28;20449;-58
2021/10/11 12:13:46;;;;;;;10.90;6.17;;;17.40;37.70;;;;;;4956194;28;20476;-59
2021/10/11 12:16:19;;;;;;;10.00;5.70;;;17.60;37.70;;;;;;4967539;28;20190;-57
2021/10/11 12:18:47;;;;;;;8.30;5.90;;;17.80;36.30;;;;;;4946393;28;21132;-58
2021/10/11 12:21:21;;;;;;;8.30;6.23;;;17.90;35.50;;;;;;4972305;28;20461;-57
2021/10/11 12:23:47;;;;;;;12.40;6.30;;;17.90;36.00;;;;;;4957317;28;20426;-58
2021/10/11 12:26:12;;;;;;;9.93;6.33;;;18.00;36.40;;;;;;4956326;28;20436;-57
2021/10/11 12:28:49;;;;;;;8.17;5.97;;;18.10;36.50;;;;;;4956125;28;20497;-58
2021/10/11 12:31:23;;;;;;;16.60;6.33;;;18.20;37.10;;;;;;4954533;28;20327;-58
2021/10/11 12:33:50;;;;;;;11.10;6.67;;;18.30;37.50;;;;;;4950327;28;20503;-58
2021/10/11 12:36:16;;;;;;;12.57;7.10;;;18.40;37.30;;;;;;4952858;28;20529;-59
2021/10/11 12:38:42;;;;;;;12.30;6.70;;;18.50;36.70;;;;;;4956399;28;20448;-60